Senneville, Canada
Current Conditions -  °F | °C
As of 1:00 AM on Wednesday 26 Nov 2014 (Local Time) from CYUL Reporting Station
Broken Clouds Broken Clouds  
Wind Chill: 24°   Ceiling: 4000
Heat Index: 36°   Visibility: 15mi
Dew Point: 25°   Wind: 23mph
Humidity: 65%   Direction: 240°WSW
Pressure: 30.11"   Gusts: 30mph
Location:  45.43°N, 73.97°W
Report Text: CYUL 260600Z 24020G26KT 15SM BKN040 02/M04 A3011 RMK SC7 SLP196
Loading
Personal Weather Stations






























Interactive Weather Map New forecast layout! Learn more

10-Day Weather Forecast

Advertisements
Track Severe Weather on mobile